Spartansburg, Pennsylvania
Current Conditions -  °F | °C
As of 7:01 AM on Sunday 25 Jan 2015 (Local Time) from KGKJ Reporting Station
Haze Haze  
Wind Chill: 19°   Ceiling: 600
Heat Index: 28°   Visibility: 2.5mi
Dew Point: 26°   Wind: 9mph
Humidity: 92%   Direction: 10°N
Pressure: 29.73"   Gusts: NA
Location:  41.82°N, 79.68°W
Report Text: KGKJ 251201Z AUTO 01008KT 2 1/2SM BR BKN006 OVC011 M02/M03 A2973 RMK AO2 SNE1156 CIG 003V010 P0000 T10221033 TSNO
Loading
Personal Weather Stations






























Interactive Weather Map New forecast layout! Learn more

10-Day Weather Forecast

Advertisements
Track Severe Weather on mobile